Olib — 9AA6266 — position and weather

sailwx.info

Track history (hours):
 
Tides and Currents Weather Stations Pressure Air Temp Water Temp Dewpoint Dewpoint Depression Visibility Wind Speed Wind Dir Waves Ship Positions

Olib

Last reported at 2015-Sep-04 20:32 UTC. Time now 2015-Sep-04 21:05 UTC.
Position N 58°21' E 011°24'.

Length 247 m; draft 15 m.

Type: Tanker. MMSI: 238252000.

Date/timePositionNaut miles runAvg speedWind from/ knotsBaromVisibWave heightAir tempDewpointWater temp
2015-Sep-04 20:32N 58°21' E 011°24'0 0.0
2015-Sep-04 19:32N 58°21' E 011°24'0 0.0
2015-Sep-04 18:32N 58°21' E 011°24'0 0.0
2015-Sep-04 17:32N 58°21' E 011°24'0 0.0
2015-Sep-04 16:32N 58°21' E 011°24'0 0.0
2015-Sep-04 15:32N 58°21' E 011°24'0 0.0
2015-Sep-04 14:32N 58°21' E 011°24'0 0.0
2015-Sep-04 13:32N 58°21' E 011°24'0 0.0
2015-Sep-04 12:32N 58°21' E 011°24'0 0.0
2015-Sep-04 11:29N 58°21' E 011°24'0 0.0
2015-Sep-04 10:32N 58°21' E 011°24'0 0.0
2015-Sep-04 09:32N 58°21' E 011°24'0 0.0
2015-Sep-04 08:29N 58°21' E 011°24'0 0.0
2015-Sep-04 07:32N 58°21' E 011°24'0 0.0
2015-Sep-04 06:32N 58°21' E 011°24'0 0.0
2015-Sep-04 05:32N 58°21' E 011°24'0 0.0
2015-Sep-04 04:32N 58°21' E 011°24'0 0.0
2015-Sep-04 03:32N 58°21' E 011°24'0 0.0
2015-Sep-04 02:26N 58°21' E 011°24'0 0.0
2015-Sep-04 01:32N 58°21' E 011°24'0 0.0
2015-Sep-04 00:32N 58°21' E 011°24'0 0.0
2015-Sep-03 23:32N 58°21' E 011°24'0 0.0
2015-Sep-03 22:32N 58°21' E 011°24'0 0.0
2015-Sep-03 21:32N 58°21' E 011°24'0 0.0
2015-Sep-03 20:26N 58°21' E 011°24'0 0.0
2015-Sep-03 19:29N 58°21' E 011°24'0 0.0
2015-Sep-03 18:32N 58°21' E 011°24'0 0.0
2015-Sep-03 17:32N 58°21' E 011°24'0 0.0
2015-Sep-03 16:32N 58°21' E 011°24'0 0.0
2015-Sep-03 15:32N 58°21' E 011°24'1 0.7
2015-Sep-03 14:33N 58°20' E 011°24'6 5.9
2015-Sep-03 13:33N 58°16' E 011°15'7 7.2
2015-Sep-03 12:33N 58°11' E 011°07'1211.7
2015-Sep-03 11:33N 57°60' E 011°00'2110.0
2015-Sep-03 09:31N 57°39' E 011°04'1111.2
2015-Sep-03 08:33N 57°31' E 011°18'1110.6
2015-Sep-03 07:33N 57°23' E 011°30'1110.7
2015-Sep-03 06:33N 57°13' E 011°36'2110.5
2015-Sep-03 04:32N 56°53' E 011°49'1010.1
2015-Sep-03 03:33N 56°43' E 011°51'98 9.7
2015-Sep-02 17:29N 55°09' E 011°00'1010.2
2015-Sep-02 16:32N 54°60' E 010°59'10 9.6
2015-Sep-02 15:32N 54°52' E 010°50'1010.1
2015-Sep-02 14:33N 54°42' E 010°46'1010.1
2015-Sep-02 13:33N 54°36' E 011°01'1010.1
2015-Sep-02 12:33N 54°34' E 011°18'1010.3
2015-Sep-02 11:33N 54°30' E 011°34'10 9.9
2015-Sep-02 10:31N 54°26' E 011°50'10 9.8
2015-Sep-02 09:32N 54°26' E 012°07'66 8.3
2015-Sep-02 01:33N 55°00' E 013°46'1110.6
2015-Sep-02 00:33N 55°04' E 014°03'1110.9
2015-Sep-01 23:33N 55°12' E 014°16'1111.2
2015-Sep-01 22:33N 55°21' E 014°28'1110.8
2015-Sep-01 21:34N 55°28' E 014°42'1111.2
2015-Sep-01 20:33N 55°33' E 014°59'8111.3
2015-Sep-01 13:20N 55°55' E 017°18'29911.2
2015-Aug-31 10:33N 59°39' E 023°30'7111.8
2015-Aug-31 04:33N 59°55' E 025°48'1511.7
2015-Aug-31 03:18N 59°59' E 026°16'911.6
2015-Aug-31 02:33N 60°01' E 026°32'  
2015-Aug-28 22:31N 59°59' E 026°46'308 7.9
2015-Aug-27 07:33N 55°58' E 020°45'0 0.0
2015-Aug-27 06:30N 55°58' E 020°45'1 0.7
2015-Aug-27 05:34N 55°59' E 020°46'7 7.0
2015-Aug-27 04:33N 56°03' E 020°56'  
Track history (hours):
 
Tides and Currents Weather Stations Pressure Air Temp Water Temp Dewpoint Dewpoint Depression Visibility Wind Speed Wind Dir Waves Ship Positions

Olib

Last reported at 2015-Sep-04 20:32 UTC. Time now 2015-Sep-04 21:05 UTC.
Position N 58°21' E 011°24'.

Length 247 m; draft 15 m.

Type: Tanker. MMSI: 238252000.

Date/timePositionNaut miles runAvg speedWind from/ knotsBaromVisibWave heightAir tempDewpointWater temp
2015-Sep-04 20:32N 58°21' E 011°24'0 0.0
2015-Sep-04 19:32N 58°21' E 011°24'0 0.0
2015-Sep-04 18:32N 58°21' E 011°24'0 0.0
2015-Sep-04 17:32N 58°21' E 011°24'0 0.0
2015-Sep-04 16:32N 58°21' E 011°24'0 0.0
2015-Sep-04 15:32N 58°21' E 011°24'0 0.0
2015-Sep-04 14:32N 58°21' E 011°24'0 0.0
2015-Sep-04 13:32N 58°21' E 011°24'0 0.0
2015-Sep-04 12:32N 58°21' E 011°24'0 0.0
2015-Sep-04 11:29N 58°21' E 011°24'0 0.0
2015-Sep-04 10:32N 58°21' E 011°24'0 0.0
2015-Sep-04 09:32N 58°21' E 011°24'0 0.0
2015-Sep-04 08:29N 58°21' E 011°24'0 0.0
2015-Sep-04 07:32N 58°21' E 011°24'0 0.0
2015-Sep-04 06:32N 58°21' E 011°24'0 0.0
2015-Sep-04 05:32N 58°21' E 011°24'0 0.0
2015-Sep-04 04:32N 58°21' E 011°24'0 0.0
2015-Sep-04 03:32N 58°21' E 011°24'0 0.0
2015-Sep-04 02:26N 58°21' E 011°24'0 0.0
2015-Sep-04 01:32N 58°21' E 011°24'0 0.0
2015-Sep-04 00:32N 58°21' E 011°24'0 0.0
2015-Sep-03 23:32N 58°21' E 011°24'0 0.0
2015-Sep-03 22:32N 58°21' E 011°24'0 0.0
2015-Sep-03 21:32N 58°21' E 011°24'0 0.0
2015-Sep-03 20:26N 58°21' E 011°24'0 0.0
2015-Sep-03 19:29N 58°21' E 011°24'0 0.0
2015-Sep-03 18:32N 58°21' E 011°24'0 0.0
2015-Sep-03 17:32N 58°21' E 011°24'0 0.0
2015-Sep-03 16:32N 58°21' E 011°24'0 0.0
2015-Sep-03 15:32N 58°21' E 011°24'1 0.7
2015-Sep-03 14:33N 58°20' E 011°24'6 5.9
2015-Sep-03 13:33N 58°16' E 011°15'7 7.2
2015-Sep-03 12:33N 58°11' E 011°07'1211.7
2015-Sep-03 11:33N 57°60' E 011°00'2110.0
2015-Sep-03 09:31N 57°39' E 011°04'1111.2
2015-Sep-03 08:33N 57°31' E 011°18'1110.6
2015-Sep-03 07:33N 57°23' E 011°30'1110.7
2015-Sep-03 06:33N 57°13' E 011°36'2110.5
2015-Sep-03 04:32N 56°53' E 011°49'1010.1
2015-Sep-03 03:33N 56°43' E 011°51'98 9.7
2015-Sep-02 17:29N 55°09' E 011°00'1010.2
2015-Sep-02 16:32N 54°60' E 010°59'10 9.6
2015-Sep-02 15:32N 54°52' E 010°50'1010.1
2015-Sep-02 14:33N 54°42' E 010°46'1010.1
2015-Sep-02 13:33N 54°36' E 011°01'1010.1
2015-Sep-02 12:33N 54°34' E 011°18'1010.3
2015-Sep-02 11:33N 54°30' E 011°34'10 9.9
2015-Sep-02 10:31N 54°26' E 011°50'10 9.8
2015-Sep-02 09:32N 54°26' E 012°07'66 8.3
2015-Sep-02 01:33N 55°00' E 013°46'1110.6
2015-Sep-02 00:33N 55°04' E 014°03'1110.9
2015-Sep-01 23:33N 55°12' E 014°16'1111.2
2015-Sep-01 22:33N 55°21' E 014°28'1110.8
2015-Sep-01 21:34N 55°28' E 014°42'1111.2
2015-Sep-01 20:33N 55°33' E 014°59'8111.3
2015-Sep-01 13:20N 55°55' E 017°18'29911.2
2015-Aug-31 10:33N 59°39' E 023°30'7111.8
2015-Aug-31 04:33N 59°55' E 025°48'1511.7
2015-Aug-31 03:18N 59°59' E 026°16'911.6
2015-Aug-31 02:33N 60°01' E 026°32'  
2015-Aug-28 22:31N 59°59' E 026°46'308 7.9
2015-Aug-27 07:33N 55°58' E 020°45'0 0.0
2015-Aug-27 06:30N 55°58' E 020°45'1 0.7
2015-Aug-27 05:34N 55°59' E 020°46'7 7.0
2015-Aug-27 04:33N 56°03' E 020°56'  

Dump ship's entire track history